CSCLB TNCM-MBPV
Flight info
| Callsign | CSCLB |
|---|---|
| Flight time | N/A |
| Altitude | 40000 |
| Route | MODOR2 JUICE B520 BQN DCT HARBG Y421 HAGIT |
| Aircraft | CL60/M-SBDE1E2E3FGHIJ1J4J5J7M3RWXYZ/LB1V1D1 |
Departure
| Time | 2026-05-03 20:15 |
|---|---|
| Airport | Princess Juliana International Airport (TNCM) |
Arrival
| Time | N/A |
|---|---|
| Airport | Providenciales International Airport (MBPV) |
| Time | Latitude | Longitude | Altitude | Speed | Heading |
|---|---|---|---|---|---|
| 2026-05-03 20:15 | 17.93983 | -63.06688 | 5798 ft | 271 kts | 162° |
| 2026-05-03 20:15 | 17.92175 | -63.06120 | 6441 ft | 272 kts | 158° |
| 2026-05-03 20:15 | 17.90410 | -63.05380 | 7047 ft | 275 kts | 153° |
| 2026-05-03 20:15 | 17.88684 | -63.04479 | 7657 ft | 277 kts | 149° |
| 2026-05-03 20:16 | 17.87032 | -63.03429 | 8253 ft | 278 kts | 144° |
| 2026-05-03 20:16 | 17.85297 | -63.02524 | 8934 ft | 285 kts | 165° |
| 2026-05-03 20:16 | 17.83297 | -63.02607 | 9555 ft | 297 kts | 197° |
| 2026-05-03 20:16 | 17.81432 | -63.03580 | 10162 ft | 304 kts | 214° |
| 2026-05-03 20:17 | 17.79858 | -63.05119 | 10777 ft | 321 kts | 231° |
| 2026-05-03 20:17 | 17.78709 | -63.07200 | 11428 ft | 341 kts | 249° |
| 2026-05-03 20:17 | 17.78259 | -63.09654 | 12031 ft | 350 kts | 270° |
| 2026-05-03 20:17 | 17.78717 | -63.12142 | 12669 ft | 351 kts | 291° |
| 2026-05-03 20:18 | 17.79703 | -63.14487 | 13271 ft | 353 kts | 294° |
| 2026-05-03 20:18 | 17.80712 | -63.16836 | 13917 ft | 355 kts | 294° |
| 2026-05-03 20:18 | 17.81720 | -63.19195 | 14550 ft | 356 kts | 294° |
| 2026-05-03 20:18 | 17.82733 | -63.21565 | 15166 ft | 357 kts | 294° |
| 2026-05-03 20:19 | 17.83748 | -63.23942 | 15803 ft | 359 kts | 294° |
| 2026-05-03 20:19 | 17.84766 | -63.26329 | 16417 ft | 360 kts | 294° |
| 2026-05-03 20:19 | 17.85788 | -63.28725 | 17052 ft | 362 kts | 294° |
| 2026-05-03 20:19 | 17.86818 | -63.31143 | 17677 ft | 365 kts | 294° |
| 2026-05-03 20:20 | 17.87854 | -63.33576 | 18317 ft | 368 kts | 294° |
| 2026-05-03 20:20 | 17.88900 | -63.36032 | 18941 ft | 371 kts | 294° |
| 2026-05-03 20:20 | 17.89952 | -63.38505 | 19569 ft | 374 kts | 294° |
| 2026-05-03 20:20 | 17.91015 | -63.41006 | 20213 ft | 377 kts | 295° |
| 2026-05-03 20:21 | 17.92089 | -63.43531 | 20833 ft | 383 kts | 295° |
| 2026-05-03 20:21 | 17.93180 | -63.46100 | 21468 ft | 389 kts | 295° |
| 2026-05-03 20:21 | 17.94286 | -63.48703 | 22125 ft | 393 kts | 295° |
| 2026-05-03 20:21 | 17.95402 | -63.51333 | 22794 ft | 397 kts | 295° |
| 2026-05-03 20:22 | 17.96527 | -63.53984 | 23441 ft | 401 kts | 295° |
| 2026-05-03 20:22 | 17.97668 | -63.56674 | 24062 ft | 406 kts | 295° |
| 2026-05-03 20:22 | 17.98822 | -63.59398 | 24676 ft | 410 kts | 296° |
| 2026-05-03 20:22 | 17.99985 | -63.62143 | 25285 ft | 414 kts | 296° |
| 2026-05-03 20:23 | 18.01166 | -63.64931 | 25875 ft | 418 kts | 296° |
| 2026-05-03 20:23 | 18.02361 | -63.67756 | 26438 ft | 422 kts | 295° |
| 2026-05-03 20:23 | 18.03574 | -63.70624 | 26983 ft | 426 kts | 295° |
| 2026-05-03 20:23 | 18.04790 | -63.73501 | 27510 ft | 429 kts | 295° |
| 2026-05-03 20:24 | 18.06023 | -63.76420 | 28016 ft | 433 kts | 295° |
| 2026-05-03 20:24 | 18.07249 | -63.79322 | 28498 ft | 437 kts | 296° |
| 2026-05-03 20:24 | 18.08487 | -63.82255 | 28967 ft | 440 kts | 295° |
| 2026-05-03 20:24 | 18.09729 | -63.85199 | 29470 ft | 443 kts | 295° |
| 2026-05-03 20:25 | 18.10980 | -63.88165 | 29976 ft | 444 kts | 295° |
| 2026-05-03 20:25 | 18.12234 | -63.91142 | 30460 ft | 446 kts | 295° |
| 2026-05-03 20:25 | 18.13491 | -63.94126 | 30903 ft | 448 kts | 295° |
| 2026-05-03 20:25 | 18.14754 | -63.97126 | 31325 ft | 450 kts | 295° |
| 2026-05-03 20:26 | 18.16022 | -64.00141 | 31717 ft | 453 kts | 295° |
| 2026-05-03 20:26 | 18.17296 | -64.03171 | 32101 ft | 454 kts | 295° |
| 2026-05-03 20:26 | 18.18574 | -64.06211 | 32466 ft | 456 kts | 295° |
| 2026-05-03 20:26 | 18.19825 | -64.09270 | 32832 ft | 458 kts | 292° |
| 2026-05-03 20:27 | 18.20757 | -64.12462 | 33304 ft | 458 kts | 284° |
| 2026-05-03 20:27 | 18.21343 | -64.15740 | 33829 ft | 456 kts | 282° |
| 2026-05-03 20:27 | 18.21882 | -64.18999 | 34378 ft | 452 kts | 282° |
| 2026-05-03 20:27 | 18.22422 | -64.22243 | 34914 ft | 448 kts | 282° |
| 2026-05-03 20:28 | 18.22957 | -64.25460 | 35416 ft | 445 kts | 282° |
| 2026-05-03 20:28 | 18.23488 | -64.28662 | 35847 ft | 444 kts | 282° |
| 2026-05-03 20:28 | 18.24017 | -64.31848 | 36209 ft | 443 kts | 282° |
| 2026-05-03 20:28 | 18.24545 | -64.35032 | 36528 ft | 443 kts | 282° |
| 2026-05-03 20:29 | 18.25072 | -64.38215 | 36827 ft | 443 kts | 282° |
| 2026-05-03 20:29 | 18.25599 | -64.41403 | 37133 ft | 443 kts | 282° |
| 2026-05-03 20:29 | 18.26124 | -64.44579 | 37439 ft | 442 kts | 282° |
| 2026-05-03 20:29 | 18.26648 | -64.47755 | 37752 ft | 441 kts | 282° |
| 2026-05-03 20:30 | 18.27169 | -64.50920 | 38056 ft | 440 kts | 282° |
| 2026-05-03 20:30 | 18.27689 | -64.54079 | 38349 ft | 439 kts | 282° |
| 2026-05-03 20:30 | 18.28207 | -64.57231 | 38645 ft | 438 kts | 282° |
| 2026-05-03 20:30 | 18.28725 | -64.60379 | 38978 ft | 436 kts | 282° |
| 2026-05-03 20:31 | 18.29239 | -64.63512 | 39313 ft | 435 kts | 282° |
| 2026-05-03 20:31 | 18.29751 | -64.66639 | 39643 ft | 433 kts | 282° |
| 2026-05-03 20:31 | 18.30259 | -64.69743 | 39960 ft | 431 kts | 282° |
| 2026-05-03 20:32 | 18.31279 | -64.75980 | 40025 ft | 436 kts | 282° |
| 2026-05-03 20:32 | 18.32311 | -64.82303 | 40026 ft | 441 kts | 282° |
| 2026-05-03 20:33 | 18.33349 | -64.88677 | 40026 ft | 443 kts | 282° |
| 2026-05-03 20:33 | 18.34386 | -64.95060 | 40024 ft | 443 kts | 282° |
| 2026-05-03 20:34 | 18.35609 | -65.01383 | 40026 ft | 440 kts | 290° |
| 2026-05-03 20:34 | 18.38119 | -65.07181 | 40019 ft | 436 kts | 301° |
| 2026-05-03 20:35 | 18.41108 | -65.12723 | 40022 ft | 436 kts | 301° |
| 2026-05-03 20:35 | 18.44090 | -65.18266 | 40015 ft | 436 kts | 301° |
| 2026-05-03 20:36 | 18.46977 | -65.23873 | 40014 ft | 437 kts | 296° |
| 2026-05-03 20:36 | 18.48757 | -65.29980 | 40011 ft | 441 kts | 282° |
| 2026-05-03 20:37 | 18.49084 | -65.36443 | 40008 ft | 445 kts | 272° |
| 2026-05-03 20:37 | 18.48957 | -65.42948 | 40010 ft | 445 kts | 272° |
| 2026-05-03 20:38 | 18.48831 | -65.49448 | 40011 ft | 445 kts | 272° |
| 2026-05-03 20:38 | 18.48704 | -65.55945 | 40011 ft | 445 kts | 272° |
| 2026-05-03 20:39 | 18.48574 | -65.62454 | 40011 ft | 445 kts | 272° |
| 2026-05-03 20:39 | 18.48441 | -65.68962 | 40015 ft | 445 kts | 272° |
| 2026-05-03 20:40 | 18.48307 | -65.75452 | 40018 ft | 444 kts | 272° |
| 2026-05-03 20:40 | 18.48171 | -65.81930 | 40019 ft | 443 kts | 272° |
| 2026-05-03 20:41 | 18.48033 | -65.88399 | 40020 ft | 443 kts | 272° |
| 2026-05-03 20:41 | 18.47893 | -65.94873 | 40020 ft | 443 kts | 272° |
| 2026-05-03 20:42 | 18.47751 | -66.01347 | 40020 ft | 443 kts | 272° |
| 2026-05-03 20:42 | 18.47606 | -66.07822 | 40021 ft | 443 kts | 272° |
| 2026-05-03 20:43 | 18.47459 | -66.14298 | 40023 ft | 443 kts | 272° |
| 2026-05-03 20:43 | 18.47310 | -66.20759 | 40024 ft | 442 kts | 272° |